Time;durP1;ratioP1;P1;durP2;ratioP2;P2;SDS_P1;SDS_P2;PMS_P1;PMS_P2;Temp;Humidity;BMP_temperature;BMP_pressure;BME280_temperature;BME280_humidity;BME280_pressure;Samples;Min_cycle;Max_cycle;Signal;HPM_P1;HPM_P2
2022/05/14 00:01:42;;;;;;;5.45;3.65;;;;;;;17.97;51.90;99430.25;5086763;28;20040;-74
2022/05/14 00:04:14;;;;;;;6.88;3.30;;;;;;;17.91;51.37;99438.81;5086951;28;20044;-74
2022/05/14 00:06:47;;;;;;;6.10;2.88;;;;;;;17.90;51.61;99442.47;5086922;28;20082;-73
2022/05/14 00:09:19;;;;;;;4.90;2.90;;;;;;;17.98;51.23;99444.50;5086392;28;20040;-74
2022/05/14 00:14:39;;;;;;;4.68;2.70;;;;;;;16.36;50.22;99198.97;5086367;28;20261;-74
2022/05/14 00:17:08;;;;;;;6.65;2.55;;;;;;;17.74;50.22;99445.59;5086741;28;20285;-74
2022/05/14 00:19:38;;;;;;;3.97;2.03;;;;;;;17.41;50.23;99395.59;5086969;28;20296;-74
2022/05/14 00:22:08;;;;;;;6.45;2.78;;;;;;;17.57;51.04;99443.41;5086907;28;20107;-73
2022/05/14 00:24:38;;;;;;;5.10;2.33;;;;;;;17.56;50.58;99441.72;5087216;28;20074;-74
2022/05/14 00:27:08;;;;;;;5.97;2.83;;;;;;;17.57;50.37;99443.41;5086863;28;20107;-74
2022/05/14 00:29:41;;;;;;;4.90;2.72;;;;;;;17.52;49.46;99443.81;5086413;28;20064;-74
2022/05/14 00:32:09;;;;;;;4.95;2.63;;;;;;;17.54;49.96;99441.84;5086305;28;20313;-74
2022/05/14 00:34:39;;;;;;;26.10;2.78;;;;;;;17.45;49.96;99447.97;5086416;28;20107;-74
2022/05/14 00:37:09;;;;;;;5.25;2.90;;;;;;;17.53;49.13;99441.97;5086047;28;20047;-74
2022/05/14 00:39:39;;;;;;;3.65;2.20;;;;;;;17.44;49.44;99442.72;5086606;28;20051;-74
2022/05/14 00:42:10;;;;;;;4.70;1.67;;;;;;;17.25;48.54;99441.56;5085731;28;20042;-73
2022/05/14 00:44:41;;;;;;;6.22;2.13;;;;;;;17.19;47.73;99439.34;5086609;28;20048;-74
2022/05/14 00:47:16;;;;;;;4.20;2.28;;;;;;;16.33;46.85;99351.66;5085317;28;20127;-73
2022/05/14 00:49:49;;;;;;;4.43;1.92;;;;;;;17.08;48.63;99441.19;5086764;28;20037;-73
2022/05/14 00:52:22;;;;;;;5.53;2.60;;;;;;;14.87;48.40;99077.28;5086434;28;20094;-74
2022/05/14 00:55:00;;;;;;;4.10;2.17;;;;;;;17.05;48.41;99438.75;5086600;28;20040;-74
2022/05/14 00:57:36;;;;;;;3.03;2.20;;;;;;;16.96;48.36;99440.34;5086482;28;20037;-74
2022/05/14 01:00:14;;;;;;;4.47;2.15;;;;;;;16.90;46.84;99448.88;5085539;28;20098;-74
2022/05/14 01:02:47;;;;;;;7.18;2.50;;;;;;;16.80;47.97;99442.53;5085577;28;20040;-74
2022/05/14 01:05:22;;;;;;;4.10;1.90;;;;;;;16.77;48.47;99451.66;5085963;28;20040;-74
2022/05/14 01:07:56;;;;;;;6.78;2.33;;;;;;;16.73;47.55;99444.84;5085942;28;20047;-74
2022/05/14 01:10:34;;;;;;;3.67;2.13;;;;;;;16.68;47.08;99449.72;5086031;28;20082;-74
2022/05/14 01:13:07;;;;;;;3.72;2.20;;;;;;;16.75;48.34;99444.72;5084431;28;20040;-73
2022/05/14 01:15:44;;;;;;;6.03;2.35;;;;;;;16.68;46.80;99444.38;5085884;28;20037;-74
2022/05/14 01:18:19;;;;;;;4.32;2.20;;;;;;;15.77;47.96;99318.66;5069043;28;20040;-74
2022/05/14 01:20:54;;;;;;;3.35;1.67;;;;;;;16.50;47.94;99435.91;5085946;28;20070;-73
2022/05/14 01:26:27;;;;;;;4.25;2.25;;;;;;;16.48;47.15;99427.16;5085833;28;20227;-73
2022/05/14 01:26:31;;;;;;;3.30;1.80;;;;;;;16.59;48.48;99424.50;5085687;28;20044;-73
2022/05/14 01:29:07;;;;;;;3.42;2.00;;;;;;;16.37;48.12;99395.06;5085484;28;20106;-74
2022/05/14 01:31:41;;;;;;;5.35;1.98;;;;;;;16.38;48.60;99394.09;5084852;28;20118;-74
2022/05/14 01:34:19;;;;;;;4.03;2.40;;;;;;;16.63;47.04;99436.66;5085497;28;20050;-73
2022/05/14 01:36:52;;;;;;;6.90;2.65;;;;;;;16.59;48.45;99442.38;5085759;28;20033;-73
2022/05/14 01:39:25;;;;;;;4.75;2.40;;;;;;;16.57;48.05;99437.16;5085876;28;20309;-73
2022/05/14 01:41:59;;;;;;;5.57;2.05;;;;;;;16.50;47.90;99443.09;5085855;28;20089;-73
2022/05/14 01:44:31;;;;;;;5.78;2.20;;;;;;;16.47;48.75;99436.16;5084845;28;20041;-73
2022/05/14 01:47:01;;;;;;;5.10;3.08;;;;;;;16.39;47.59;99443.09;5085091;28;20078;-74
2022/05/14 01:49:31;;;;;;;6.35;2.88;;;;;;;16.30;48.83;99445.50;5085408;28;20067;-74
2022/05/14 01:52:01;;;;;;;5.68;2.20;;;;;;;16.39;48.51;99453.78;5086070;28;20074;-74
2022/05/14 01:54:31;;;;;;;5.28;2.45;;;;;;;16.42;48.36;99446.38;5085686;28;20383;-74
2022/05/14 01:57:04;;;;;;;3.47;2.45;;;;;;;16.44;47.77;99454.28;5085666;28;20311;-74
2022/05/14 01:59:32;;;;;;;6.03;2.38;;;;;;;16.43;47.93;99457.91;5085090;28;20259;-74
2022/05/14 02:02:02;;;;;;;5.60;2.08;;;;;;;16.33;47.73;99455.97;5084823;28;20036;-74
2022/05/14 02:04:32;;;;;;;4.97;2.17;;;;;;;16.30;48.23;99456.19;5084711;28;20224;-75
2022/05/14 02:07:02;;;;;;;2.58;1.60;;;;;;;16.24;48.79;99462.00;5085206;28;20044;-74
2022/05/14 02:09:32;;;;;;;4.45;2.50;;;;;;;16.18;48.22;99462.50;5085255;28;20384;-74
2022/05/14 02:12:05;;;;;;;4.88;2.53;;;;;;;16.04;48.07;99458.19;5084617;28;20200;-73
2022/05/14 02:14:33;;;;;;;2.78;1.90;;;;;;;16.02;49.14;99459.28;5085279;28;20045;-73
2022/05/14 02:17:03;;;;;;;6.07;2.38;;;;;;;16.11;48.84;99457.72;5068030;28;20036;-73
2022/05/14 02:19:33;;;;;;;6.15;2.30;;;;;;;15.75;48.85;99384.72;5085441;28;20068;-73
2022/05/14 02:22:05;;;;;;;4.78;2.55;;;;;;;16.10;48.49;99466.72;5085361;28;20044;-73
2022/05/14 02:24:33;;;;;;;7.10;2.47;;;;;;;16.03;48.37;99463.66;5088622;28;20044;-73
2022/05/14 02:27:06;;;;;;;9.48;2.42;;;;;;;16.09;48.15;99463.19;5088892;28;20041;-73
2022/05/14 02:32:22;;;;;;;3.58;2.13;;;;;;;16.14;47.97;99458.34;5089070;28;20041;-74
2022/05/14 02:34:55;;;;;;;3.25;1.83;;;;;;;16.14;48.17;99455.66;5089111;28;20041;-73
2022/05/14 02:37:28;;;;;;;4.10;2.38;;;;;;;16.20;48.12;99449.00;5088728;28;20047;-73
2022/05/14 02:40:00;;;;;;;3.00;1.98;;;;;;;16.15;48.19;99446.69;5089024;28;20037;-73
2022/05/14 02:42:33;;;;;;;3.55;2.10;;;;;;;16.18;47.67;99446.44;5088942;28;20045;-74
2022/05/14 02:45:07;;;;;;;10.13;2.30;;;;;;;16.18;47.83;99459.81;5087833;28;20285;-74
2022/05/14 02:47:40;;;;;;;7.25;2.28;;;;;;;16.18;47.83;99450.94;5088021;28;20040;-74
2022/05/14 02:50:13;;;;;;;4.47;1.95;;;;;;;16.23;48.16;99454.97;5088470;28;20239;-74
2022/05/14 02:52:46;;;;;;;4.88;2.03;;;;;;;15.85;47.86;99404.44;5088463;28;20237;-74
2022/05/14 02:55:18;;;;;;;4.50;2.40;;;;;;;16.15;48.16;99451.19;5087587;28;20041;-74
2022/05/14 02:57:52;;;;;;;9.13;2.75;;;;;;;16.17;48.01;99449.22;5088330;28;20296;-74
2022/05/14 03:00:24;;;;;;;3.60;2.07;;;;;;;16.06;47.38;99450.06;5088602;28;20094;-74
2022/05/14 03:02:57;;;;;;;4.95;2.60;;;;;;;16.10;47.72;99459.53;5087676;28;20051;-74
2022/05/14 03:05:29;;;;;;;6.55;2.40;;;;;;;16.03;47.71;99455.63;5087692;28;20044;-74
2022/05/14 03:08:02;;;;;;;4.57;1.90;;;;;;;16.01;47.63;99460.25;5087633;28;20052;-74
2022/05/14 03:10:34;;;;;;;5.55;2.30;;;;;;;16.07;47.80;99462.47;5088332;28;20066;-74
2022/05/14 03:13:08;;;;;;;4.57;2.53;;;;;;;16.05;47.81;99461.72;5088132;28;20048;-74
2022/05/14 03:15:41;;;;;;;3.30;2.30;;;;;;;16.02;47.94;99461.94;5087320;28;20037;-74
2022/05/14 03:18:13;;;;;;;3.33;1.83;;;;;;;16.00;47.80;99463.88;5087551;28;20082;-74
2022/05/14 03:20:46;;;;;;;7.90;2.38;;;;;;;15.49;47.69;99375.97;5087538;28;20044;-74
2022/05/14 03:23:19;;;;;;;5.55;3.00;;;;;;;16.05;47.91;99467.06;5088267;28;20289;-74
2022/05/14 03:25:51;;;;;;;4.15;2.20;;;;;;;16.04;48.24;99471.56;5088032;28;20048;-74
2022/05/14 03:28:26;;;;;;;7.55;2.92;;;;;;;15.10;47.84;99323.72;5087744;28;20063;-74
2022/05/14 03:30:59;;;;;;;4.63;2.08;;;;;;;16.08;47.98;99480.19;5087239;28;20359;-74
2022/05/14 03:33:32;;;;;;;6.72;2.85;;;;;;;16.07;47.48;99480.31;5088089;28;20048;-74
2022/05/14 03:36:04;;;;;;;3.08;2.20;;;;;;;15.95;47.32;99479.41;5070312;28;20040;-74
2022/05/14 03:38:37;;;;;;;7.50;2.70;;;;;;;16.02;47.70;99483.34;5087736;28;20085;-74
2022/05/14 03:41:09;;;;;;;3.67;2.30;;;;;;;16.01;47.75;99478.97;5087614;28;20044;-75
2022/05/14 03:43:44;;;;;;;5.43;2.70;;;;;;;16.03;47.52;99485.03;5087044;28;20093;-74
2022/05/14 03:46:17;;;;;;;4.10;2.10;;;;;;;15.97;47.23;99494.38;5086726;28;20078;-74
2022/05/14 03:48:49;;;;;;;3.20;2.40;;;;;;;15.98;47.92;99488.06;5087783;28;20234;-74
2022/05/14 03:51:21;;;;;;;7.07;2.10;;;;;;;15.98;47.55;99484.53;5087617;28;20223;-74
2022/05/14 03:53:54;;;;;;;5.43;2.38;;;;;;;15.94;47.91;99491.94;5086738;28;20044;-74
2022/05/14 03:56:26;;;;;;;4.88;2.45;;;;;;;15.94;47.77;99483.06;5086830;28;20040;-74
2022/05/14 03:58:59;;;;;;;7.07;2.17;;;;;;;15.96;47.72;99489.16;5087234;28;20284;-74
2022/05/14 04:01:32;;;;;;;3.53;2.27;;;;;;;15.96;48.14;99490.00;5087268;28;20052;-74
2022/05/14 04:04:04;;;;;;;16.30;2.83;;;;;;;15.94;47.81;99486.59;5087151;28;20037;-74
2022/05/14 04:06:37;;;;;;;6.18;2.33;;;;;;;15.20;47.82;99371.94;5087090;28;20040;-74
2022/05/14 04:09:09;;;;;;;5.00;2.47;;;;;;;15.94;48.10;99493.75;5087101;28;20041;-74
2022/05/14 04:11:41;;;;;;;3.83;2.15;;;;;;;15.95;48.12;99490.13;5087244;28;20088;-74
2022/05/14 04:14:15;;;;;;;8.52;2.85;;;;;;;15.95;47.83;99495.47;5086799;28;20040;-74
2022/05/14 04:16:47;;;;;;;3.20;1.80;;;;;;;15.18;47.72;99422.78;5085839;28;20288;-74
2022/05/14 04:19:20;;;;;;;5.70;2.10;;;;;;;15.96;47.80;99489.16;5086902;28;20293;-74
2022/05/14 04:21:53;;;;;;;3.38;2.10;;;;;;;16.00;47.88;99498.63;5086608;28;20044;-74
2022/05/14 04:24:25;;;;;;;4.57;2.05;;;;;;;15.99;47.67;99499.59;5085835;28;20078;-74
2022/05/14 04:26:58;;;;;;;6.88;3.13;;;;;;;15.97;47.53;99506.88;5086824;28;20041;-74
2022/05/14 04:29:31;;;;;;;3.88;2.10;;;;;;;15.96;47.62;99513.19;5085637;28;20087;-74
2022/05/14 04:32:05;;;;;;;7.25;2.67;;;;;;;15.91;47.37;99510.03;5085908;28;20059;-74
2022/05/14 04:34:34;;;;;;;4.15;2.60;;;;;;;14.89;47.41;99336.84;5068982;28;20114;-74
2022/05/14 04:37:04;;;;;;;5.45;2.88;;;;;;;15.93;47.55;99516.97;5086389;28;20090;-74
2022/05/14 04:39:34;;;;;;;4.85;2.40;;;;;;;15.93;47.56;99516.09;5085894;28;20047;-74
2022/05/14 04:42:08;;;;;;;4.82;2.75;;;;;;;15.94;47.82;99531.16;5086267;28;20107;-74
2022/05/14 04:44:40;;;;;;;8.13;2.55;;;;;;;15.90;47.24;99533.22;5086267;28;20036;-74
2022/05/14 04:47:10;;;;;;;5.65;2.60;;;;;;;15.89;47.37;99534.19;5084790;28;20025;-74
2022/05/14 04:49:40;;;;;;;4.75;2.65;;;;;;;15.93;47.50;99532.13;5086485;28;20041;-74
2022/05/14 04:52:10;;;;;;;7.82;2.53;;;;;;;15.95;47.66;99533.72;5085496;28;20041;-74
2022/05/14 04:54:40;;;;;;;3.85;2.17;;;;;;;15.76;47.64;99489.78;5085484;28;20105;-74
2022/05/14 04:57:10;;;;;;;3.40;2.03;;;;;;;16.02;47.62;99539.47;5086095;28;20201;-74
2022/05/14 04:59:41;;;;;;;4.90;2.22;;;;;;;16.03;47.24;99543.84;5086572;28;20071;-74
2022/05/14 05:04:59;;;;;;;5.38;2.63;;;;;;;15.95;47.71;99547.09;5085401;28;20239;-74
2022/05/14 05:07:32;;;;;;;3.67;1.90;;;;;;;15.95;47.72;99541.75;5086177;28;20040;-74
2022/05/14 05:10:05;;;;;;;4.70;2.35;;;;;;;15.98;47.31;99556.72;5085866;28;20224;-74
2022/05/14 05:12:37;;;;;;;4.35;2.42;;;;;;;15.61;46.89;99497.94;5085730;28;20036;-74
2022/05/14 05:15:12;;;;;;;6.70;2.83;;;;;;;16.03;47.05;99560.75;5086039;28;20041;-74
2022/05/14 05:17:44;;;;;;;;;;;;;;;15.96;45.77;99562.16;5086533;28;20058;-74
2022/05/14 05:20:16;;;;;;;3.67;2.03;;;;;;;15.96;46.97;99559.50;5085937;28;19966;-74
2022/05/14 05:22:49;;;;;;;3.83;1.85;;;;;;;16.02;47.00;99568.88;5085639;28;20045;-74
2022/05/14 05:25:22;;;;;;;2.67;1.85;;;;;;;15.97;46.59;99566.53;5084905;28;20047;-74
2022/05/14 05:27:55;;;;;;;4.72;2.22;;;;;;;16.04;46.72;99572.28;5085737;28;20044;-74
2022/05/14 05:30:29;;;;;;;2.85;1.70;;;;;;;16.10;46.59;99565.63;5085595;28;20086;-74
2022/05/14 05:33:01;;;;;;;5.25;2.42;;;;;;;16.12;46.68;99569.06;5084779;28;20288;-74
2022/05/14 05:35:33;;;;;;;7.07;2.38;;;;;;;16.21;46.48;99568.34;5085631;28;20086;-74
2022/05/14 05:38:07;;;;;;;7.25;2.53;;;;;;;16.23;46.55;99564.59;5085526;28;20044;-74
2022/05/14 05:40:39;;;;;;;4.40;2.10;;;;;;;16.26;46.46;99568.88;5084708;28;20048;-74
2022/05/14 05:43:13;;;;;;;4.68;2.35;;;;;;;16.32;46.26;99571.94;5084929;28;20040;-74
2022/05/14 05:45:49;;;;;;;6.63;2.75;;;;;;;16.39;45.96;99582.16;5085158;28;20052;-74
2022/05/14 05:48:22;;;;;;;6.95;3.10;;;;;;;16.42;46.24;99576.59;5085693;28;20331;-74
2022/05/14 05:50:54;;;;;;;3.60;2.28;;;;;;;16.45;46.13;99571.84;5085411;28;20041;-74
2022/05/14 05:56:46;;;;;;;5.88;2.60;;;;;;;16.44;46.13;99574.66;5085573;28;20292;-74
2022/05/14 05:59:14;;;;;;;6.65;2.65;;;;;;;16.11;46.52;99530.75;5088360;28;20247;-74
2022/05/14 06:01:48;;;;;;;5.93;2.67;;;;;;;16.24;46.17;99555.63;5089682;28;20044;-74
2022/05/14 06:04:21;;;;;;;5.78;2.72;;;;;;;16.47;46.16;99587.78;5089299;28;20086;-74
2022/05/14 06:06:54;;;;;;;9.48;3.72;;;;;;;16.48;46.56;99582.31;5089554;28;20339;-74
2022/05/14 06:09:26;;;;;;;7.80;3.75;;;;;;;16.53;46.31;99587.31;5089533;28;20036;-74
2022/05/14 06:11:59;;;;;;;8.27;4.20;;;;;;;16.60;46.40;99593.91;5088532;28;20243;-74
2022/05/14 06:14:31;;;;;;;8.52;4.68;;;;;;;16.60;46.18;99600.13;5089360;28;20044;-74
2022/05/14 06:17:03;;;;;;;13.95;9.00;;;;;;;16.33;45.65;99544.22;5089031;28;20036;-74
2022/05/14 06:19:31;;;;;;;14.52;5.35;;;;;;;16.76;45.53;99597.16;5089052;28;20102;-74
2022/05/14 06:22:04;;;;;;;6.43;3.38;;;;;;;16.10;45.74;99502.31;5088817;28;20047;-74
2022/05/14 06:24:32;;;;;;;6.63;2.95;;;;;;;16.90;45.72;99601.44;5088924;28;20094;-74
2022/05/14 06:27:02;;;;;;;4.53;2.70;;;;;;;16.98;45.64;99596.34;5088693;28;20103;-74
2022/05/14 06:29:33;;;;;;;6.15;2.40;;;;;;;16.37;45.16;99512.75;5088483;28;20078;-74
2022/05/14 06:32:04;;;;;;;3.70;2.40;;;;;;;16.97;44.59;99606.22;5087800;28;20107;-74
2022/05/14 06:34:33;;;;;;;5.45;2.60;;;;;;;17.02;44.48;99597.81;5088749;28;20047;-74
2022/05/14 06:37:03;;;;;;;4.20;2.38;;;;;;;17.09;45.04;99598.19;5088599;28;20036;-74
2022/05/14 06:39:32;;;;;;;3.72;1.98;;;;;;;17.21;44.93;99603.47;5088883;28;20029;-74
2022/05/14 06:42:03;;;;;;;4.85;2.65;;;;;;;17.35;44.88;99606.88;5088462;28;20043;-74
2022/05/14 06:44:32;;;;;;;3.97;2.65;;;;;;;17.57;44.04;99610.41;5088845;28;20052;-74
2022/05/14 06:47:05;;;;;;;3.72;2.40;;;;;;;17.17;43.35;99489.50;5088512;28;20304;-74
2022/05/14 06:49:33;;;;;;;4.38;2.80;;;;;;;18.31;42.91;99605.28;5088638;28;20059;-75
2022/05/14 06:52:06;;;;;;;5.88;2.80;;;;;;;17.57;42.27;99430.88;5088292;28;20082;-74
2022/05/14 06:54:40;;;;;;;5.70;2.65;;;;;;;18.84;41.63;99591.91;5088375;28;20063;-74
2022/05/14 06:57:09;;;;;;;5.53;2.60;;;;;;;19.03;41.65;99591.16;5088248;28;20045;-74
2022/05/14 06:59:39;;;;;;;4.82;2.63;;;;;;;18.87;41.43;99552.22;5087831;28;20079;-74
2022/05/14 07:02:13;;;;;;;7.80;3.22;;;;;;;19.34;41.00;99583.97;5088249;28;20308;-74
2022/05/14 07:07:36;;;;;;;6.70;3.33;;;;;;;19.43;40.74;99573.31;5088286;28;20040;-74
2022/05/14 07:10:08;;;;;;;7.55;3.65;;;;;;;19.79;40.74;99587.13;5087299;28;20052;-74
2022/05/14 07:12:41;;;;;;;6.15;2.80;;;;;;;19.98;40.56;99592.59;5087232;28;20059;-74
2022/05/14 07:15:14;;;;;;;9.48;3.35;;;;;;;20.11;40.30;99593.19;5088174;28;20041;-74
2022/05/14 07:17:48;;;;;;;7.25;2.92;;;;;;;20.31;39.87;99594.09;5087886;28;20047;-74
2022/05/14 07:20:24;;;;;;;9.30;2.92;;;;;;;20.44;39.67;99589.28;5088106;28;20214;-74
2022/05/14 07:22:56;;;;;;;4.05;2.38;;;;;;;20.50;39.30;99579.78;5087035;28;20041;-74
2022/05/14 07:25:28;;;;;;;5.05;2.28;;;;;;;20.56;38.66;99595.38;5086946;28;20090;-75
2022/05/14 07:28:01;;;;;;;4.57;2.40;;;;;;;20.49;38.51;99584.31;5087469;28;20086;-74
2022/05/14 07:30:33;;;;;;;5.93;2.40;;;;;;;20.58;37.93;99581.75;5087486;28;20045;-74
2022/05/14 07:33:07;;;;;;;5.78;2.20;;;;;;;20.67;37.84;99586.28;5087454;28;20216;-74
2022/05/14 07:35:40;;;;;;;4.78;2.35;;;;;;;20.85;38.26;99578.31;5087619;28;20289;-74
2022/05/14 07:38:12;;;;;;;4.55;2.38;;;;;;;21.06;37.87;99579.88;5087683;28;20052;-74
2022/05/14 07:40:45;;;;;;;4.97;2.25;;;;;;;21.21;37.30;99582.94;5087677;28;20045;-74
2022/05/14 07:43:23;;;;;;;4.55;1.83;;;;;;;21.30;37.08;99573.97;5087332;28;20048;-74
2022/05/14 07:46:02;;;;;;;3.63;2.20;;;;;;;21.35;36.35;99573.53;5086736;28;20052;-74
2022/05/14 07:48:38;;;;;;;4.07;2.28;;;;;;;20.62;35.67;99437.78;5087261;28;20044;-74
2022/05/14 07:51:12;;;;;;;7.53;3.33;;;;;;;21.67;37.15;99576.66;5086662;28;20063;-74
2022/05/14 07:53:44;;;;;;;5.05;2.53;;;;;;;21.80;35.39;99581.72;5087033;28;20243;-74
2022/05/14 07:56:17;;;;;;;4.57;2.70;;;;;;;20.99;36.61;99416.22;5086605;28;20041;-74
2022/05/14 07:58:49;;;;;;;4.63;2.03;;;;;;;21.90;35.64;99577.13;5087059;28;20090;-74
2022/05/14 08:01:21;;;;;;;5.80;2.67;;;;;;;21.93;36.26;99566.03;5086727;28;20058;-74
2022/05/14 08:03:55;;;;;;;5.07;2.45;;;;;;;21.80;35.21;99535.00;5087043;28;20106;-74
2022/05/14 08:06:28;;;;;;;;;;;;;;;22.08;33.01;99563.66;5087233;28;20052;-74
2022/05/14 08:09:00;;;;;;;5.28;2.38;;;;;;;22.16;36.39;99584.47;5087149;28;19920;-74
2022/05/14 08:11:33;;;;;;;4.20;2.13;;;;;;;22.32;35.81;99571.16;5087058;28;20290;-74
2022/05/14 08:14:05;;;;;;;5.73;2.50;;;;;;;22.45;35.73;99562.69;5086950;28;20095;-74
2022/05/14 08:16:38;;;;;;;4.65;2.97;;;;;;;22.35;35.57;99524.94;5087123;28;20086;-74
2022/05/14 08:19:12;;;;;;;5.93;2.85;;;;;;;22.60;34.39;99553.06;5086473;28;20044;-74
2022/05/14 08:24:35;;;;;;;6.05;2.15;;;;;;;22.48;34.41;99555.13;5086907;28;20182;-74
2022/05/14 08:27:07;;;;;;;5.20;2.30;;;;;;;22.39;34.03;99521.78;5086423;28;20173;-74
2022/05/14 08:29:40;;;;;;;6.18;2.45;;;;;;;22.80;34.33;99549.16;5085688;28;20063;-74
2022/05/14 08:32:10;;;;;;;3.05;2.13;;;;;;;22.92;34.28;99547.91;5086393;28;20041;-74
2022/05/14 08:34:41;;;;;;;3.70;2.28;;;;;;;22.99;33.75;99546.25;5086310;28;20044;-74
2022/05/14 08:37:10;;;;;;;4.65;2.28;;;;;;;23.21;34.44;99544.84;5086215;28;20056;-74
2022/05/14 08:39:39;;;;;;;3.65;2.75;;;;;;;23.32;34.33;99539.19;5085631;28;20102;-74
2022/05/14 08:42:13;;;;;;;5.57;3.05;;;;;;;23.49;32.92;99542.84;5085621;28;20078;-74
2022/05/14 08:44:47;;;;;;;4.65;2.90;;;;;;;23.57;33.70;99544.72;5069556;28;20048;-74
2022/05/14 08:47:28;;;;;;;5.05;2.80;;;;;;;23.43;32.05;99486.69;5086163;28;20086;-74
2022/05/14 08:50:04;;;;;;;3.92;2.70;;;;;;;23.80;32.72;99536.84;5086497;28;20041;-74
2022/05/14 08:52:38;;;;;;;3.03;1.80;;;;;;;23.72;33.45;99526.00;5086107;28;20040;-74
2022/05/14 08:55:18;;;;;;;4.25;2.67;;;;;;;22.79;32.40;99416.94;5085450;28;20093;-74
2022/05/14 08:57:58;;;;;;;6.00;3.80;;;;;;;23.84;32.51;99530.09;5085376;28;20128;-74
2022/05/14 09:00:30;;;;;;;5.50;3.38;;;;;;;23.86;33.49;99528.91;5085835;28;20044;-74
2022/05/14 09:03:02;;;;;;;5.93;3.35;;;;;;;23.75;33.06;99523.81;5085408;28;20305;-74
2022/05/14 09:05:38;;;;;;;7.55;3.55;;;;;;;23.72;32.67;99516.03;5085439;28;20055;-74
2022/05/14 09:08:10;;;;;;;6.03;3.05;;;;;;;23.88;33.08;99521.47;5086032;28;20311;-74
2022/05/14 09:10:43;;;;;;;3.90;2.00;;;;;;;23.57;33.60;99498.72;5085185;28;20037;-74
2022/05/14 09:13:18;;;;;;;4.22;2.72;;;;;;;23.87;33.68;99517.09;5085786;28;20044;-74
2022/05/14 09:15:55;;;;;;;6.15;3.15;;;;;;;23.95;33.27;99525.22;5086034;28;20062;-74
2022/05/14 09:18:29;;;;;;;9.45;2.97;;;;;;;23.98;33.15;99518.66;5069152;28;20280;-74
2022/05/14 09:21:05;;;;;;;5.00;3.15;;;;;;;23.90;32.88;99522.16;5085666;28;20044;-74
2022/05/14 09:23:42;;;;;;;5.53;2.75;;;;;;;23.97;32.79;99511.56;5085713;28;20052;-74
2022/05/14 09:26:18;;;;;;;4.28;2.50;;;;;;;23.60;32.58;99465.94;5085421;28;20036;-74
2022/05/14 09:28:52;;;;;;;5.05;2.25;;;;;;;23.97;32.69;99514.25;5085564;28;20053;-74
2022/05/14 09:31:28;;;;;;;3.90;2.83;;;;;;;23.99;33.27;99506.81;5085789;28;20055;-74
2022/05/14 09:34:04;;;;;;;5.18;3.60;;;;;;;24.13;33.40;99506.16;5085046;28;20094;-74
2022/05/14 09:36:38;;;;;;;5.53;3.08;;;;;;;24.20;32.95;99523.44;5085316;28;20239;-74
2022/05/14 09:39:13;;;;;;;4.25;2.50;;;;;;;24.32;32.90;99502.28;5085446;28;20058;-74
2022/05/14 09:41:47;;;;;;;4.32;2.60;;;;;;;24.43;32.57;99501.94;5084616;28;20178;-74
2022/05/14 09:44:22;;;;;;;3.70;2.00;;;;;;;24.56;31.09;99506.84;5085488;28;20055;-74
2022/05/14 09:47:07;;;;;;;4.07;2.65;;;;;;;24.61;31.28;99501.75;5085461;28;20335;-74
2022/05/14 09:49:40;;;;;;;4.03;2.27;;;;;;;24.41;32.07;99459.78;5084980;28;20037;-74
2022/05/14 09:52:12;;;;;;;9.77;3.53;;;;;;;24.71;32.20;99505.16;5085463;28;20041;-74
2022/05/14 09:54:45;;;;;;;6.18;3.45;;;;;;;24.81;32.23;99499.56;5085168;28;20090;-74
2022/05/14 09:57:23;;;;;;;5.15;2.13;;;;;;;24.62;31.00;99496.16;5086133;28;20099;-74
2022/05/14 10:00:05;;;;;;;7.88;2.97;;;;;;;24.66;31.08;99483.16;5085561;28;20090;-74
2022/05/14 10:03:06;;;;;;;5.20;2.53;;;;;;;24.79;30.81;99488.03;5085477;28;20090;-75
2022/05/14 10:05:50;;;;;;;7.72;2.28;;;;;;;24.52;30.25;99411.50;5085616;28;20045;-75
2022/05/14 10:08:44;;;;;;;3.95;2.13;;;;;;;24.96;29.74;99476.16;5085371;28;20169;-75
2022/05/14 10:11:21;;;;;;;4.80;2.63;;;;;;;24.83;30.56;99454.16;5084484;28;20045;-75
2022/05/14 10:14:06;;;;;;;4.78;2.17;;;;;;;25.07;30.06;99473.09;5085660;28;20055;-75
2022/05/14 10:16:47;;;;;;;3.80;2.17;;;;;;;25.17;31.23;99470.19;5084947;28;20316;-75
2022/05/14 10:19:35;;;;;;;5.70;2.45;;;;;;;24.84;30.06;99401.63;5085011;28;20220;-74
2022/05/14 10:22:18;;;;;;;4.18;2.38;;;;;;;25.36;30.87;99466.22;5085104;28;20036;-74
2022/05/14 10:28:10;;;;;;;6.72;3.55;;;;;;;25.55;30.45;99465.78;5084667;28;20082;-74
2022/05/14 10:30:54;;;;;;;5.72;2.67;;;;;;;25.41;29.94;99467.41;5085303;28;20082;-74
2022/05/14 10:33:31;;;;;;;4.80;1.85;;;;;;;25.14;29.71;99463.25;5084688;28;20090;-74
2022/05/14 10:36:10;;;;;;;4.55;1.98;;;;;;;25.11;30.46;99462.75;5084928;28;20289;-74
2022/05/14 10:38:46;;;;;;;2.05;1.33;;;;;;;24.87;29.37;99428.41;5084999;28;20049;-75
2022/05/14 10:41:31;;;;;;;4.00;2.25;;;;;;;24.75;28.93;99427.06;5084574;28;20090;-75
2022/05/14 10:44:04;;;;;;;;;;;;;;;24.92;28.98;99455.81;5086482;28;20044;-75
2022/05/14 10:46:39;;;;;;;4.88;2.35;;;;;;;25.12;30.96;99450.88;5088810;28;19916;-74
2022/05/14 10:49:19;;;;;;;4.78;2.78;;;;;;;24.98;30.33;99455.13;5088333;28;20036;-74
2022/05/14 10:51:55;;;;;;;5.13;3.40;;;;;;;25.18;30.81;99448.31;5088632;28;20045;-74
2022/05/14 10:54:35;;;;;;;3.70;2.60;;;;;;;25.20;30.02;99419.16;5088304;28;20301;-74
2022/05/14 10:57:28;;;;;;;6.43;2.13;;;;;;;25.43;29.43;99451.78;5088138;28;20048;-75
2022/05/14 11:00:15;;;;;;;3.85;2.38;;;;;;;25.44;29.75;99447.19;5088813;28;20127;-75
2022/05/14 11:02:55;;;;;;;4.93;2.20;;;;;;;25.50;29.51;99450.06;5088583;28;20040;-75
2022/05/14 11:06:06;;;;;;;7.35;2.67;;;;;;;25.51;29.21;99446.31;5088273;28;20090;-74
2022/05/14 11:08:42;;;;;;;5.68;2.78;;;;;;;25.36;30.32;99414.69;5071241;28;20049;-75
2022/05/14 11:11:21;;;;;;;5.07;2.80;;;;;;;25.66;29.68;99448.28;5088285;28;20043;-75
2022/05/14 11:14:03;;;;;;;4.63;2.05;;;;;;;25.38;29.65;99388.22;5088148;28;20090;-75
2022/05/14 11:16:43;;;;;;;8.07;2.90;;;;;;;25.62;29.73;99436.91;5088254;28;20040;-74
2022/05/14 11:19:28;;;;;;;5.95;2.08;;;;;;;25.63;28.78;99443.19;5087274;28;20040;-74
2022/05/14 11:22:03;;;;;;;4.10;2.60;;;;;;;24.63;30.01;99313.59;5087873;28;20062;-74
2022/05/14 11:24:39;;;;;;;6.53;2.55;;;;;;;25.54;30.40;99445.97;5087791;28;20052;-74
2022/05/14 11:27:10;;;;;;;6.60;3.83;;;;;;;25.54;30.10;99443.25;5088271;28;20285;-75
2022/05/14 11:29:50;;;;;;;6.25;3.22;;;;;;;25.55;28.88;99435.94;5087839;28;20335;-75
2022/05/14 11:32:25;;;;;;;7.15;3.63;;;;;;;25.62;29.97;99425.22;5086874;28;20094;-74
2022/05/14 11:35:00;;;;;;;5.82;2.53;;;;;;;25.68;30.05;99435.38;5087541;28;20049;-74
2022/05/14 11:37:37;;;;;;;5.50;2.80;;;;;;;25.65;29.73;99423.00;5087541;28;20040;-74
2022/05/14 11:40:27;;;;;;;3.90;2.47;;;;;;;25.48;29.23;99391.56;5087593;28;20293;-74
2022/05/14 11:43:23;;;;;;;7.07;3.45;;;;;;;25.54;28.88;99398.97;5087493;28;20117;-74
2022/05/14 11:46:11;;;;;;;5.32;2.92;;;;;;;25.41;29.75;99420.44;5086262;28;20051;-71
2022/05/14 11:48:48;;;;;;;6.15;2.85;;;;;;;25.62;30.27;99411.66;5086968;28;20044;-71
2022/05/14 11:51:33;;;;;;;3.58;2.20;;;;;;;25.48;29.46;99487.38;5086888;28;20044;-70
2022/05/14 11:54:10;;;;;;;4.97;2.80;;;;;;;25.39;30.41;99414.34;5086827;28;20086;-71
2022/05/14 11:56:49;;;;;;;4.82;2.28;;;;;;;25.59;29.98;99408.28;5086016;28;20342;-71
2022/05/14 11:59:28;;;;;;;5.93;2.97;;;;;;;25.72;29.18;99396.81;5086722;28;20067;-71
2022/05/14 12:02:06;;;;;;;5.10;2.85;;;;;;;25.85;29.76;99405.22;5086741;28;20044;-71
2022/05/14 12:04:40;;;;;;;5.30;2.42;;;;;;;25.85;29.79;99405.22;5086654;28;20045;-71
2022/05/14 12:07:29;;;;;;;4.22;2.63;;;;;;;25.88;28.89;99390.44;5086446;28;20047;-70
2022/05/14 12:10:15;;;;;;;4.55;2.80;;;;;;;25.90;29.80;99399.22;5086210;28;20082;-71
2022/05/14 12:12:53;;;;;;;3.38;2.45;;;;;;;25.68;29.85;99392.78;5085196;28;20188;-71
2022/05/14 12:15:25;;;;;;;6.93;3.42;;;;;;;25.40;30.76;99394.31;5086344;28;20044;-71
2022/05/14 12:18:01;;;;;;;5.07;2.95;;;;;;;25.54;30.67;99388.13;5085230;28;20048;-71
2022/05/14 12:20:34;;;;;;;4.53;3.17;;;;;;;25.74;30.92;99374.94;5085770;28;20044;-71
2022/05/14 12:23:11;;;;;;;4.15;2.55;;;;;;;25.86;30.30;99362.63;5086285;28;20044;-72
2022/05/14 12:25:46;;;;;;;8.40;3.30;;;;;;;25.72;30.17;99322.69;5086294;28;20044;-73
2022/05/14 12:28:27;;;;;;;5.57;3.35;;;;;;;25.78;30.39;99332.81;5086078;28;20082;-72